Terminal Aerodrome Forecast
Issued by NWS Sterling, VA

Home | Current Version | Previous Version | Text Only | Print | Product List | Glossary On
Versions: 1 2 3 4 5 6 7 8 9 10 11 12 13 14 15 16 17 18 19 20 21
000
FTUS41 KLWX 301400 AAA
TAFBWI
TAF AMD
KBWI 301455Z 3015/3118 16006KT P6SM OVC040
     FM311000 18006KT 5SM BR BKN090
     FM311300 20007KT P6SM BKN090=

USA.gov is the U.S. government's official web portal to all federal, state and local government web resources and services.